createdAt,value
2023-04-15T00:00:16.853Z,93.01
2023-04-15T00:01:16.858Z,93.11
2023-04-15T00:02:16.887Z,92.94
2023-04-15T00:03:17.075Z,92.94
2023-04-15T00:04:16.843Z,92.94
2023-04-15T00:05:16.800Z,91.91
2023-04-15T00:06:16.771Z,91.40
2023-04-15T00:07:16.763Z,91.40
2023-04-15T00:08:16.770Z,90.57
2023-04-15T00:09:16.739Z,90.47
2023-04-15T00:10:16.731Z,90.67
2023-04-15T00:11:16.708Z,90.47
2023-04-15T00:12:16.692Z,90.06
2023-04-15T00:13:16.714Z,90.16
2023-04-15T00:14:16.673Z,89.75
2023-04-15T00:15:16.663Z,89.44
2023-04-15T00:16:16.650Z,89.34
2023-04-15T00:17:16.632Z,89.13
2023-04-15T00:18:16.631Z,89.13
2023-04-15T00:19:16.624Z,88.82
2023-04-15T00:20:16.592Z,88.72
2023-04-15T00:21:16.589Z,89.03
2023-04-15T00:22:16.573Z,88.62
2023-04-15T00:23:16.576Z,87.90
2023-04-15T00:24:16.531Z,87.59
2023-04-15T00:25:16.524Z,87.59
2023-04-15T00:26:16.514Z,87.38
2023-04-15T00:27:16.513Z,87.38
2023-04-15T00:28:16.485Z,87.07
2023-04-15T00:29:16.486Z,86.15
2023-04-15T00:30:16.453Z,86.29
2023-04-15T00:31:16.547Z,86.24
2023-04-15T00:32:16.458Z,86.24
2023-04-15T00:33:16.470Z,85.57
2023-04-15T00:34:16.404Z,84.64
2023-04-15T00:35:16.402Z,83.40
2023-04-15T00:36:16.425Z,83.61
2023-04-15T00:37:16.386Z,83.29
2023-04-15T00:38:16.344Z,82.78
2023-04-15T00:39:16.357Z,82.57
2023-04-15T00:40:16.326Z,82.26
2023-04-15T00:41:16.319Z,81.44
2023-04-15T00:42:16.339Z,80.72
2023-04-15T00:43:16.300Z,80.72
2023-04-15T00:44:16.294Z,80.14
2023-04-15T00:45:16.276Z,80.93
2023-04-15T00:46:16.288Z,81.13
2023-04-15T00:47:16.280Z,81.23
2023-04-15T00:48:16.219Z,80.55
2023-04-15T00:49:16.216Z,80.34
2023-04-15T00:50:16.204Z,80.82
2023-04-15T00:51:16.193Z,80.72
2023-04-15T00:52:16.184Z,80.72
2023-04-15T00:53:16.164Z,80.96
2023-04-15T00:54:16.145Z,80.86
2023-04-15T00:55:16.138Z,80.04
2023-04-15T00:56:16.120Z,80.44
2023-04-15T00:57:16.160Z,79.41
2023-04-15T00:58:16.086Z,79.00
2023-04-15T00:59:16.080Z,78.59
2023-04-15T01:00:16.081Z,78.69
2023-04-15T01:01:16.121Z,77.15
2023-04-15T01:02:16.212Z,73.95
2023-04-15T01:03:16.269Z,72.81
2023-04-15T01:04:16.068Z,71.41
2023-04-15T01:05:16.008Z,71.26
2023-04-15T01:06:15.987Z,71.06
2023-04-15T01:07:15.979Z,71.37
2023-04-15T01:08:15.975Z,71.58
2023-04-15T01:09:15.950Z,72.61
2023-04-15T01:10:15.932Z,72.71
2023-04-15T01:11:15.918Z,72.33
2023-04-15T01:12:15.907Z,72.40
2023-04-15T01:13:15.923Z,72.19
2023-04-15T01:14:15.878Z,73.12
2023-04-15T01:15:15.867Z,73.64
2023-04-15T01:16:15.853Z,74.26
2023-04-15T01:17:15.834Z,74.05
2023-04-15T01:18:15.846Z,74.26
2023-04-15T01:19:15.825Z,74.57
2023-04-15T01:20:15.794Z,74.29
2023-04-15T01:21:15.799Z,74.60
2023-04-15T01:22:15.791Z,73.57
2023-04-15T01:23:15.805Z,74.08
2023-04-15T01:24:15.753Z,74.29
2023-04-15T01:25:15.745Z,75.12
2023-04-15T01:26:15.735Z,74.60
2023-04-15T01:27:15.742Z,75.12
2023-04-15T01:28:15.699Z,75.63
2023-04-15T01:29:15.696Z,76.04
2023-04-15T01:30:15.700Z,76.25
2023-04-15T01:31:15.696Z,76.15
2023-04-15T01:32:15.653Z,76.15
2023-04-15T01:33:15.636Z,75.95
2023-04-15T01:34:15.634Z,75.63
2023-04-15T01:35:15.624Z,75.01
2023-04-15T01:36:15.618Z,74.91
2023-04-15T01:37:15.590Z,75.12
2023-04-15T01:38:15.630Z,74.53
2023-04-15T01:39:15.549Z,74.02
2023-04-15T01:40:15.563Z,74.22
2023-04-15T01:41:15.544Z,73.81
2023-04-15T01:42:15.529Z,73.91
2023-04-15T01:43:15.525Z,74.33
2023-04-15T01:44:15.489Z,74.43
2023-04-15T01:45:15.471Z,73.60
2023-04-15T01:46:15.495Z,73.60
2023-04-15T01:47:15.489Z,73.50
2023-04-15T01:48:15.431Z,73.19
2023-04-15T01:49:15.425Z,72.78
2023-04-15T01:50:15.404Z,73.50
2023-04-15T01:51:15.403Z,72.67
2023-04-15T01:52:15.392Z,72.88
2023-04-15T01:53:15.405Z,72.36
2023-04-15T01:54:15.354Z,72.47
2023-04-15T01:55:15.349Z,72.57
2023-04-15T01:56:16.838Z,72.26
2023-04-15T01:57:15.337Z,72.16
2023-04-15T01:58:15.322Z,72.26
2023-04-15T01:59:15.328Z,72.26
2023-04-15T02:00:15.275Z,72.06
2023-04-15T02:01:15.307Z,72.26
2023-04-15T02:02:15.296Z,72.57
2023-04-15T02:03:15.335Z,72.47
2023-04-15T02:04:15.226Z,72.26
2023-04-15T02:05:15.226Z,73.09
2023-04-15T02:06:15.202Z,73.39
2023-04-15T02:07:15.203Z,74.12
2023-04-15T02:08:15.219Z,73.81
2023-04-15T02:09:15.171Z,74.02
2023-04-15T02:10:15.158Z,73.91
2023-04-15T02:11:15.137Z,73.81
2023-04-15T02:12:15.136Z,74.15
2023-04-15T02:13:15.109Z,73.85
2023-04-15T02:14:15.107Z,73.95
2023-04-15T02:15:15.088Z,73.74
2023-04-15T02:16:15.085Z,73.02
2023-04-15T02:17:15.091Z,72.91
2023-04-15T02:18:15.036Z,72.71
2023-04-15T02:19:15.040Z,72.50
2023-04-15T02:20:15.016Z,71.50
2023-04-15T02:21:15.051Z,71.19
2023-04-15T02:22:15.009Z,70.88
2023-04-15T02:23:14.989Z,69.54
2023-04-15T02:24:14.982Z,68.30
2023-04-15T02:25:14.960Z,67.99
2023-04-15T02:26:14.938Z,67.27
2023-04-15T02:27:14.955Z,65.82
2023-04-15T02:28:14.917Z,65.41
2023-04-15T02:29:14.917Z,64.78
2023-04-15T02:30:14.892Z,64.48
2023-04-15T02:31:14.929Z,64.37
2023-04-15T02:32:14.888Z,64.78
2023-04-15T02:33:14.860Z,64.48
2023-04-15T02:34:14.845Z,64.27
2023-04-15T02:35:14.835Z,64.27
2023-04-15T02:36:14.811Z,63.23
2023-04-15T02:37:14.820Z,63.23
2023-04-15T02:38:14.796Z,63.96
2023-04-15T02:39:14.774Z,64.17
2023-04-15T02:40:14.759Z,64.48
2023-04-15T02:41:14.761Z,64.99
2023-04-15T02:42:14.764Z,65.09
2023-04-15T02:43:14.720Z,64.78
2023-04-15T02:44:14.700Z,64.78
2023-04-15T02:45:14.702Z,64.99
2023-04-15T02:46:14.998Z,65.09
2023-04-15T02:47:14.663Z,65.41
2023-04-15T02:48:14.673Z,65.61
2023-04-15T02:49:14.649Z,65.51
2023-04-15T02:50:14.624Z,66.64
2023-04-15T02:51:14.611Z,66.64
2023-04-15T02:52:14.590Z,67.37
2023-04-15T02:53:14.644Z,66.96
2023-04-15T02:54:14.572Z,67.06
2023-04-15T02:55:14.562Z,67.47
2023-04-15T02:56:14.538Z,67.88
2023-04-15T02:57:14.581Z,67.99
2023-04-15T02:58:14.514Z,68.61
2023-04-15T02:59:14.509Z,68.85
2023-04-15T03:00:14.498Z,69.06
2023-04-15T03:01:14.530Z,68.74
2023-04-15T03:02:14.532Z,69.33
2023-04-15T03:03:14.616Z,68.43
2023-04-15T03:04:14.625Z,68.54
2023-04-15T03:05:14.420Z,68.85
2023-04-15T03:06:14.411Z,68.54
2023-04-15T03:07:14.420Z,68.54
2023-04-15T03:08:14.388Z,67.91
2023-04-15T03:09:14.441Z,67.61
2023-04-15T03:10:14.355Z,67.82
2023-04-15T03:11:14.349Z,67.71
2023-04-15T03:12:14.334Z,67.82
2023-04-15T03:13:14.325Z,69.06
2023-04-15T03:14:14.309Z,69.57
2023-04-15T03:15:14.303Z,69.88
2023-04-15T03:16:14.389Z,70.29
2023-04-15T03:17:14.280Z,70.29
2023-04-15T03:18:14.247Z,69.88
2023-04-15T03:19:14.246Z,69.78
2023-04-15T03:20:14.250Z,69.37
2023-04-15T03:21:14.210Z,69.37
2023-04-15T03:22:14.210Z,69.98
2023-04-15T03:23:14.199Z,70.50
2023-04-15T03:24:14.175Z,70.92
2023-04-15T03:25:14.188Z,71.43
2023-04-15T03:26:14.140Z,71.22
2023-04-15T03:27:14.169Z,70.92
2023-04-15T03:28:14.124Z,71.74
2023-04-15T03:29:14.114Z,71.64
2023-04-15T03:30:14.091Z,71.84
2023-04-15T03:31:14.136Z,71.78
2023-04-15T03:32:14.065Z,71.84
2023-04-15T03:33:14.062Z,72.36
2023-04-15T03:34:14.042Z,72.88
2023-04-15T03:35:14.035Z,74.12
2023-04-15T03:36:14.040Z,74.33
2023-04-15T03:37:14.006Z,74.84
2023-04-15T03:38:13.989Z,74.95
2023-04-15T03:39:13.981Z,75.26
2023-04-15T03:40:13.973Z,75.36
2023-04-15T03:41:13.976Z,75.15
2023-04-15T03:42:13.934Z,74.63
2023-04-15T03:43:13.922Z,74.74
2023-04-15T03:44:13.913Z,74.74
2023-04-15T03:45:13.906Z,74.22
2023-04-15T03:46:13.966Z,74.22
2023-04-15T03:47:13.908Z,74.12
2023-04-15T03:48:17.865Z,74.63
2023-04-15T03:49:13.843Z,76.50
2023-04-15T03:50:13.836Z,76.84
2023-04-15T03:51:13.835Z,76.43
2023-04-15T03:52:13.812Z,76.53
2023-04-15T03:53:13.791Z,76.22
2023-04-15T03:54:13.783Z,76.22
2023-04-15T03:55:13.764Z,76.01
2023-04-15T03:56:13.789Z,75.36
2023-04-15T03:57:13.851Z,75.19
2023-04-15T03:58:13.724Z,74.46
2023-04-15T03:59:13.780Z,74.26
2023-04-15T04:00:13.703Z,74.15
2023-04-15T04:01:13.699Z,73.33
2023-04-15T04:02:13.785Z,72.60
2023-04-15T04:03:13.856Z,72.50
2023-04-15T04:04:13.726Z,72.71
2023-04-15T04:05:13.635Z,72.60
2023-04-15T04:06:13.649Z,73.12
2023-04-15T04:07:13.600Z,72.39
2023-04-15T04:08:13.592Z,72.60
2023-04-15T04:09:13.600Z,72.39
2023-04-15T04:10:13.572Z,72.60
2023-04-15T04:11:13.569Z,71.88
2023-04-15T04:12:13.541Z,71.78
2023-04-15T04:13:13.523Z,71.36
2023-04-15T04:14:13.518Z,70.98
2023-04-15T04:15:13.509Z,70.36
2023-04-15T04:16:13.558Z,70.05
2023-04-15T04:17:13.691Z,70.47
2023-04-15T04:18:13.476Z,70.57
2023-04-15T04:19:13.468Z,70.98
2023-04-15T04:20:13.454Z,70.87
2023-04-15T04:21:13.433Z,70.26
2023-04-15T04:22:13.413Z,70.05
2023-04-15T04:23:13.395Z,70.26
2023-04-15T04:24:13.388Z,70.57
2023-04-15T04:25:13.391Z,70.67
2023-04-15T04:26:13.393Z,70.77
2023-04-15T04:27:13.355Z,70.57
2023-04-15T04:28:13.340Z,70.77
2023-04-15T04:29:13.319Z,70.57
2023-04-15T04:30:13.310Z,70.57
2023-04-15T04:31:13.316Z,70.87
2023-04-15T04:32:13.352Z,70.98
2023-04-15T04:33:13.264Z,71.08
2023-04-15T04:34:13.258Z,70.26
2023-04-15T04:35:13.240Z,70.15
2023-04-15T04:36:13.231Z,70.57
2023-04-15T04:37:13.202Z,70.87
2023-04-15T04:38:13.191Z,70.77
2023-04-15T04:39:13.169Z,70.57
2023-04-15T04:40:13.170Z,70.77
2023-04-15T04:41:13.162Z,70.15
2023-04-15T04:42:13.145Z,69.43
2023-04-15T04:43:13.139Z,68.91
2023-04-15T04:44:13.124Z,69.53
2023-04-15T04:45:13.107Z,69.22
2023-04-15T04:46:13.175Z,69.22
2023-04-15T04:47:13.067Z,69.22
2023-04-15T04:48:13.075Z,69.12
2023-04-15T04:49:13.059Z,69.64
2023-04-15T04:50:13.046Z,69.74
2023-04-15T04:51:13.038Z,68.60
2023-04-15T04:52:13.074Z,68.60
2023-04-15T04:53:13.012Z,68.29
2023-04-15T04:54:13.001Z,68.49
2023-04-15T04:55:12.987Z,68.57
2023-04-15T04:56:12.989Z,68.88
2023-04-15T04:57:12.951Z,69.01
2023-04-15T04:58:12.930Z,69.29
2023-04-15T04:59:12.928Z,68.88
2023-04-15T05:00:12.902Z,68.77
2023-04-15T05:01:13.014Z,68.88
2023-04-15T05:02:12.952Z,69.19
2023-04-15T05:03:13.046Z,69.60
2023-04-15T05:04:12.984Z,69.19
2023-04-15T05:05:12.894Z,69.71
2023-04-15T05:06:13.045Z,69.81
2023-04-15T05:07:12.920Z,69.71
2023-04-15T05:08:12.898Z,69.71
2023-04-15T05:09:12.882Z,69.92
2023-04-15T05:10:12.787Z,69.71
2023-04-15T05:11:12.773Z,70.01
2023-04-15T05:12:12.757Z,69.60
2023-04-15T05:13:12.731Z,69.71
2023-04-15T05:14:12.724Z,69.09
2023-04-15T05:15:12.704Z,69.09
2023-04-15T05:16:12.816Z,69.50
2023-04-15T05:17:12.680Z,69.29
2023-04-15T05:18:12.677Z,69.81
2023-04-15T05:19:12.682Z,69.29
2023-04-15T05:20:12.655Z,69.29
2023-04-15T05:21:12.640Z,69.19
2023-04-15T05:22:12.626Z,69.95
2023-04-15T05:23:12.604Z,70.05
2023-04-15T05:24:12.603Z,69.22
2023-04-15T05:25:12.581Z,68.60
2023-04-15T05:26:12.583Z,68.08
2023-04-15T05:27:12.548Z,68.08
2023-04-15T05:28:12.550Z,68.29
2023-04-15T05:29:12.541Z,67.98
2023-04-15T05:30:13.560Z,66.94
2023-04-15T05:31:12.640Z,66.63
2023-04-15T05:32:12.486Z,66.42
2023-04-15T05:33:12.490Z,66.12
2023-04-15T05:34:12.467Z,65.81
2023-04-15T05:35:12.442Z,65.70
2023-04-15T05:36:12.457Z,65.29
2023-04-15T05:37:12.417Z,64.95
2023-04-15T05:38:12.409Z,64.02
2023-04-15T05:39:12.398Z,63.60
2023-04-15T05:40:12.389Z,63.60
2023-04-15T05:41:12.418Z,63.40
2023-04-15T05:42:12.460Z,63.60
2023-04-15T05:43:12.345Z,63.57
2023-04-15T05:44:12.329Z,63.68
2023-04-15T05:45:12.320Z,63.57
2023-04-15T05:46:12.362Z,63.78
2023-04-15T05:47:12.274Z,63.99
2023-04-15T05:48:12.292Z,64.06
2023-04-15T05:49:12.255Z,64.58
2023-04-15T05:50:12.282Z,65.20
2023-04-15T05:51:12.234Z,66.00
2023-04-15T05:52:12.227Z,67.03
2023-04-15T05:53:12.206Z,68.27
2023-04-15T05:54:12.197Z,68.75
2023-04-15T05:55:12.215Z,70.09
2023-04-15T05:56:12.182Z,71.95
2023-04-15T05:57:12.157Z,73.91
2023-04-15T05:58:12.154Z,75.12
2023-04-15T05:59:12.280Z,76.77
2023-04-15T06:00:12.136Z,76.73
2023-04-15T06:01:12.094Z,76.73
2023-04-15T06:02:12.184Z,76.84
2023-04-15T06:03:12.159Z,77.42
2023-04-15T06:04:12.197Z,78.34
2023-04-15T06:05:12.067Z,78.45
2023-04-15T06:06:12.039Z,79.24
2023-04-15T06:07:12.021Z,79.96
2023-04-15T06:08:12.018Z,81.61
2023-04-15T06:09:12.006Z,82.33
2023-04-15T06:10:12.012Z,82.70
2023-04-15T06:11:11.969Z,83.53
2023-04-15T06:12:11.990Z,83.94
2023-04-15T06:13:11.960Z,84.14
2023-04-15T06:14:11.930Z,83.53
2023-04-15T06:15:11.987Z,84.25
2023-04-15T06:16:11.964Z,83.90
2023-04-15T06:17:11.886Z,83.39
2023-04-15T06:18:11.879Z,82.87
2023-04-15T06:19:11.869Z,82.97
2023-04-15T06:20:11.873Z,83.39
2023-04-15T06:21:11.861Z,83.80
2023-04-15T06:22:11.830Z,83.39
2023-04-15T06:23:11.814Z,83.49
2023-04-15T06:24:11.803Z,83.28
2023-04-15T06:25:11.784Z,83.90
2023-04-15T06:26:11.796Z,83.59
2023-04-15T06:27:11.764Z,83.65
2023-04-15T06:28:11.748Z,84.38
2023-04-15T06:29:11.730Z,84.07
2023-04-15T06:30:11.726Z,83.86
2023-04-15T06:31:11.733Z,84.17
2023-04-15T06:32:11.706Z,84.27
2023-04-15T06:33:11.682Z,84.17
2023-04-15T06:34:11.673Z,83.86
2023-04-15T06:35:11.835Z,84.34
2023-04-15T06:36:11.648Z,84.44
2023-04-15T06:37:11.618Z,85.36
2023-04-15T06:38:11.618Z,85.36
2023-04-15T06:39:11.604Z,85.36
2023-04-15T06:40:11.611Z,85.68
2023-04-15T06:41:11.568Z,84.81
2023-04-15T06:42:11.570Z,85.84
2023-04-15T06:43:11.540Z,85.84
2023-04-15T06:44:11.528Z,86.35
2023-04-15T06:45:11.537Z,86.87
2023-04-15T06:46:11.572Z,87.04
2023-04-15T06:47:11.488Z,87.45
2023-04-15T06:48:11.478Z,87.85
2023-04-15T06:49:11.470Z,87.55
2023-04-15T06:50:11.479Z,87.61
2023-04-15T06:51:11.443Z,88.02
2023-04-15T06:52:11.450Z,88.02
2023-04-15T06:53:11.410Z,88.29
2023-04-15T06:54:11.402Z,88.80
2023-04-15T06:55:11.424Z,88.70
2023-04-15T06:56:11.384Z,88.86
2023-04-15T06:57:11.347Z,89.69
2023-04-15T06:58:11.350Z,90.09
2023-04-15T06:59:11.335Z,90.26
2023-04-15T07:00:11.339Z,90.97
2023-04-15T07:01:11.326Z,91.08
2023-04-15T07:02:11.385Z,91.14
2023-04-15T07:03:11.345Z,91.44
2023-04-15T07:04:11.290Z,90.93
2023-04-15T07:05:11.270Z,92.32
2023-04-15T07:06:11.253Z,93.55
2023-04-15T07:07:11.216Z,94.27
2023-04-15T07:08:11.221Z,93.96
2023-04-15T07:09:11.198Z,94.27
2023-04-15T07:10:11.221Z,94.37
2023-04-15T07:11:11.170Z,93.04
2023-04-15T07:12:11.164Z,93.51
2023-04-15T07:13:11.140Z,94.02
2023-04-15T07:14:11.135Z,94.12
2023-04-15T07:15:11.144Z,94.95
2023-04-15T07:16:11.142Z,95.05
2023-04-15T07:17:11.203Z,95.36
2023-04-15T07:18:11.089Z,95.72
2023-04-15T07:19:11.092Z,96.13
2023-04-15T07:20:11.087Z,95.72
2023-04-15T07:21:11.045Z,95.10
2023-04-15T07:22:11.025Z,95.51
2023-04-15T07:23:11.012Z,95.47
2023-04-15T07:24:11.001Z,95.67
2023-04-15T07:25:10.980Z,96.08
2023-04-15T07:26:11.001Z,97.00
2023-04-15T07:27:10.963Z,97.06
2023-04-15T07:28:10.965Z,96.66
2023-04-15T07:29:10.930Z,96.34
2023-04-15T07:30:10.928Z,97.06
2023-04-15T07:31:11.088Z,96.66
2023-04-15T07:32:10.920Z,97.06
2023-04-15T07:33:10.879Z,97.27
2023-04-15T07:34:10.869Z,97.78
2023-04-15T07:35:10.894Z,97.67
2023-04-15T07:36:10.842Z,97.78
2023-04-15T07:37:10.809Z,98.03
2023-04-15T07:38:10.815Z,97.72
2023-04-15T07:39:10.796Z,97.72
2023-04-15T07:40:10.813Z,97.72
2023-04-15T07:41:10.780Z,98.33
2023-04-15T07:42:10.770Z,98.24
2023-04-15T07:43:10.759Z,98.33
2023-04-15T07:44:10.739Z,98.19
2023-04-15T07:45:10.736Z,97.88
2023-04-15T07:46:10.755Z,98.49
2023-04-15T07:47:10.702Z,98.49
2023-04-15T07:48:10.678Z,98.60
2023-04-15T07:49:10.666Z,98.49
2023-04-15T07:50:10.669Z,98.33
2023-04-15T07:51:10.652Z,98.33
2023-04-15T07:52:10.632Z,98.19
2023-04-15T07:53:10.612Z,98.29
2023-04-15T07:54:10.612Z,98.39
2023-04-15T07:55:10.616Z,98.39
2023-04-15T07:56:10.583Z,98.39
2023-04-15T07:57:10.549Z,98.29
2023-04-15T07:58:10.550Z,98.29
2023-04-15T07:59:10.534Z,98.39
2023-04-15T08:00:10.552Z,98.35
2023-04-15T08:01:10.545Z,98.24
2023-04-15T08:02:10.554Z,97.83
2023-04-15T08:03:10.602Z,97.63
2023-04-15T08:04:10.857Z,97.69
2023-04-15T08:05:10.509Z,97.53
2023-04-15T08:06:10.436Z,97.28
2023-04-15T08:07:10.448Z,97.58
2023-04-15T08:08:10.451Z,97.38
2023-04-15T08:09:10.501Z,97.28
2023-04-15T08:10:10.476Z,97.58
2023-04-15T08:11:10.373Z,97.49
2023-04-15T08:12:10.354Z,97.03
2023-04-15T08:13:10.379Z,96.62
2023-04-15T08:14:10.319Z,96.77
2023-04-15T08:15:10.348Z,96.31
2023-04-15T08:16:10.339Z,96.62
2023-04-15T08:17:10.294Z,96.01
2023-04-15T08:18:10.274Z,94.68
2023-04-15T08:19:10.272Z,94.78
2023-04-15T08:20:10.270Z,94.27
2023-04-15T08:21:10.243Z,90.29
2023-04-15T08:22:11.223Z,88.24
2023-04-15T08:23:11.213Z,87.94
2023-04-15T08:24:10.194Z,89.98
2023-04-15T08:25:10.201Z,88.24
2023-04-15T08:26:10.172Z,88.76
2023-04-15T08:27:10.169Z,88.85
2023-04-15T08:28:10.140Z,88.65
2023-04-15T08:29:10.131Z,90.49
2023-04-15T08:30:10.140Z,90.90
2023-04-15T08:31:10.176Z,89.26
2023-04-15T08:32:10.095Z,89.98
2023-04-15T08:33:10.098Z,89.32
2023-04-15T08:34:10.060Z,88.92
2023-04-15T08:35:10.071Z,89.49
2023-04-15T08:36:10.060Z,87.35
2023-04-15T08:37:11.469Z,85.75
2023-04-15T08:38:10.013Z,86.57
2023-04-15T08:39:09.996Z,85.45
2023-04-15T08:40:10.011Z,88.26
2023-04-15T08:41:09.977Z,87.55
2023-04-15T08:42:09.964Z,86.83
2023-04-15T08:43:09.949Z,85.61
2023-04-15T08:44:09.922Z,85.41
2023-04-15T08:45:09.946Z,87.35
2023-04-15T08:46:09.905Z,88.88
2023-04-15T08:47:09.916Z,86.69
2023-04-15T08:48:09.874Z,88.63
2023-04-15T08:49:09.866Z,91.18
2023-04-15T08:50:09.883Z,86.80
2023-04-15T08:51:09.873Z,83.43
2023-04-15T08:52:09.832Z,82.71
2023-04-15T08:53:09.821Z,85.57
2023-04-15T08:54:09.797Z,83.94
2023-04-15T08:55:09.806Z,83.73
2023-04-15T08:56:09.793Z,84.25
2023-04-15T08:57:09.767Z,85.94
2023-04-15T08:58:09.745Z,87.57
2023-04-15T08:59:09.767Z,84.82
2023-04-15T09:00:09.745Z,81.09
2023-04-15T09:01:09.781Z,79.04
2023-04-15T09:02:09.749Z,78.53
2023-04-15T09:03:09.773Z,80.07
2023-04-15T09:04:09.698Z,80.41
2023-04-15T09:05:09.678Z,81.59
2023-04-15T09:06:09.640Z,80.88
2023-04-15T09:07:09.632Z,77.55
2023-04-15T09:08:09.646Z,80.10
2023-04-15T09:09:09.603Z,80.27
2023-04-15T09:10:09.602Z,78.94
2023-04-15T09:11:09.595Z,78.12
2023-04-15T09:12:09.552Z,77.31
2023-04-15T09:13:09.578Z,74.86
2023-04-15T09:14:09.532Z,75.16
2023-04-15T09:15:09.542Z,78.12
2023-04-15T09:16:09.541Z,79.00
2023-04-15T09:17:09.493Z,79.62
2023-04-15T09:18:09.475Z,76.15
2023-04-15T09:19:09.475Z,74.93
2023-04-15T09:20:09.470Z,74.58
2023-04-15T09:21:09.447Z,71.26
2023-04-15T09:22:09.427Z,73.71
2023-04-15T09:23:09.424Z,76.46
2023-04-15T09:24:09.406Z,76.56
2023-04-15T09:25:09.402Z,74.73
2023-04-15T09:26:09.371Z,73.88
2023-04-15T09:27:09.369Z,73.16
2023-04-15T09:28:09.346Z,72.52
2023-04-15T09:29:09.384Z,74.76
2023-04-15T09:30:09.347Z,74.35
2023-04-15T09:31:09.387Z,71.70
2023-04-15T09:32:09.277Z,69.67
2023-04-15T09:33:09.284Z,69.90
2023-04-15T09:34:09.272Z,68.37
2023-04-15T09:35:09.277Z,70.34
2023-04-15T09:36:09.232Z,72.17
2023-04-15T09:37:09.251Z,74.42
2023-04-15T09:38:09.202Z,73.88
2023-04-15T09:39:09.203Z,73.77
2023-04-15T09:40:09.237Z,71.80
2023-04-15T09:41:09.176Z,71.30
2023-04-15T09:42:09.163Z,72.01
2023-04-15T09:43:09.248Z,73.64
2023-04-15T09:44:09.128Z,72.82
2023-04-15T09:45:09.136Z,72.01
2023-04-15T09:46:09.151Z,71.30
2023-04-15T09:47:09.093Z,70.78
2023-04-15T09:48:09.107Z,71.50
2023-04-15T09:49:09.073Z,72.41
2023-04-15T09:50:09.081Z,71.09
2023-04-15T09:51:09.036Z,70.51
2023-04-15T09:52:09.023Z,69.19
2023-04-15T09:53:09.013Z,73.67
2023-04-15T09:54:08.993Z,71.63
2023-04-15T09:55:08.989Z,70.61
2023-04-15T09:56:09.004Z,71.33
2023-04-15T09:57:08.990Z,72.04
2023-04-15T09:58:08.950Z,72.55
2023-04-15T09:59:08.931Z,74.86
2023-04-15T10:00:08.938Z,71.30
2023-04-15T10:01:08.950Z,72.52
2023-04-15T10:02:09.040Z,72.52
2023-04-15T10:03:09.044Z,73.43
2023-04-15T10:04:08.973Z,70.58
2023-04-15T10:05:08.877Z,69.87
2023-04-15T10:06:08.990Z,72.31
2023-04-15T10:07:08.832Z,71.39
2023-04-15T10:08:08.812Z,71.39
2023-04-15T10:09:08.812Z,71.47
2023-04-15T10:10:08.824Z,70.04
2023-04-15T10:11:08.780Z,70.95
2023-04-15T10:12:08.759Z,71.56
2023-04-15T10:13:08.741Z,70.86
2023-04-15T10:14:08.722Z,71.36
2023-04-15T10:15:08.756Z,71.73
2023-04-15T10:16:08.751Z,70.31
2023-04-15T10:17:08.693Z,70.21
2023-04-15T10:18:08.718Z,72.01
2023-04-15T10:19:08.674Z,69.87
2023-04-15T10:20:08.660Z,69.36
2023-04-15T10:21:08.654Z,70.38
2023-04-15T10:22:08.626Z,68.99
2023-04-15T10:23:10.429Z,72.65
2023-04-15T10:24:08.605Z,72.04
2023-04-15T10:25:08.587Z,72.55
2023-04-15T10:26:08.594Z,73.13
2023-04-15T10:27:08.553Z,71.09
2023-04-15T10:28:08.543Z,70.68
2023-04-15T10:29:08.556Z,73.16
2023-04-15T10:30:08.525Z,76.11
2023-04-15T10:31:08.541Z,75.30
2023-04-15T10:32:08.497Z,76.42
2023-04-15T10:33:08.489Z,75.09
2023-04-15T10:34:08.478Z,72.01
2023-04-15T10:35:08.479Z,70.99
2023-04-15T10:36:08.513Z,70.95
2023-04-15T10:37:08.426Z,75.16
2023-04-15T10:38:08.406Z,76.28
2023-04-15T10:39:08.409Z,76.25
2023-04-15T10:40:08.440Z,74.28
2023-04-15T10:41:08.383Z,72.99
2023-04-15T10:42:08.409Z,70.28
2023-04-15T10:43:08.368Z,68.79
2023-04-15T10:44:08.338Z,69.70
2023-04-15T10:45:08.350Z,69.81
2023-04-15T10:46:08.353Z,71.64
2023-04-15T10:47:08.287Z,68.99
2023-04-15T10:48:08.326Z,68.59
2023-04-15T10:49:08.272Z,69.40
2023-04-15T10:50:08.274Z,70.72
2023-04-15T10:51:08.244Z,73.33
2023-04-15T10:52:08.221Z,74.96
2023-04-15T10:53:08.218Z,70.04
2023-04-15T10:54:08.232Z,70.45
2023-04-15T10:55:08.217Z,71.06
2023-04-15T10:56:08.179Z,67.84
2023-04-15T10:57:08.160Z,69.50
2023-04-15T10:58:08.143Z,70.18
2023-04-15T10:59:08.135Z,71.91
2023-04-15T11:00:08.115Z,72.96
2023-04-15T11:01:08.116Z,75.20
2023-04-15T11:02:08.197Z,73.67
2023-04-15T11:03:08.235Z,73.87
2023-04-15T11:04:08.215Z,73.26
2023-04-15T11:05:08.072Z,72.75
2023-04-15T11:06:08.029Z,74.58
2023-04-15T11:07:08.018Z,74.28
2023-04-15T11:08:08.008Z,74.79
2023-04-15T11:09:07.989Z,73.36
2023-04-15T11:10:08.005Z,74.48
2023-04-15T11:11:07.968Z,80.69
2023-04-15T11:12:07.952Z,80.90
2023-04-15T11:13:07.945Z,78.05
2023-04-15T11:14:07.922Z,77.50
2023-04-15T11:15:07.937Z,76.28
2023-04-15T11:16:07.963Z,75.57
2023-04-15T11:17:07.891Z,74.96
2023-04-15T11:18:07.971Z,77.64
2023-04-15T11:19:07.881Z,80.38
2023-04-15T11:20:07.896Z,80.69
2023-04-15T11:21:07.841Z,80.08
2023-04-15T11:22:07.823Z,82.52
2023-04-15T11:23:13.908Z,83.03
2023-04-15T11:24:09.056Z,82.05
2023-04-15T11:25:07.812Z,83.58
2023-04-15T11:26:07.762Z,83.37
2023-04-15T11:27:07.764Z,84.43
2023-04-15T11:28:07.770Z,90.28
2023-04-15T11:29:07.738Z,90.44
2023-04-15T11:30:07.750Z,90.34
2023-04-15T11:31:07.706Z,87.75
2023-04-15T11:32:07.734Z,87.75
2023-04-15T11:33:07.677Z,85.72
2023-04-15T11:34:07.711Z,87.20
2023-04-15T11:35:07.683Z,81.40
2023-04-15T11:36:07.652Z,80.73
2023-04-15T11:37:07.643Z,82.87
2023-04-15T11:38:07.606Z,83.27
2023-04-15T11:39:07.601Z,84.80
2023-04-15T11:40:07.616Z,85.41
2023-04-15T11:41:07.578Z,85.05
2023-04-15T11:42:07.559Z,85.14
2023-04-15T11:43:07.546Z,90.14
2023-04-15T11:44:07.529Z,82.79
2023-04-15T11:45:07.540Z,76.72
2023-04-15T11:46:07.524Z,80.32
2023-04-15T11:47:07.488Z,81.34
2023-04-15T11:48:07.478Z,80.63
2023-04-15T11:49:07.470Z,81.34
2023-04-15T11:50:07.478Z,79.64
2023-04-15T11:51:07.440Z,82.09
2023-04-15T11:52:07.418Z,82.90
2023-04-15T11:53:08.630Z,81.95
2023-04-15T11:54:07.569Z,82.56
2023-04-15T11:55:07.415Z,80.63
2023-04-15T11:56:07.364Z,79.37
2023-04-15T11:57:07.360Z,79.68
2023-04-15T11:58:07.349Z,83.34
2023-04-15T11:59:07.344Z,79.47
2023-04-15T12:00:07.342Z,80.02
2023-04-15T12:01:07.317Z,81.65
2023-04-15T12:02:07.340Z,86.16
2023-04-15T12:03:07.454Z,90.03
2023-04-15T12:04:07.516Z,91.26
2023-04-15T12:05:07.297Z,93.24
2023-04-15T12:06:07.235Z,93.07
2023-04-15T12:07:07.228Z,93.07
2023-04-15T12:08:07.209Z,93.63
2023-04-15T12:09:07.205Z,94.95
2023-04-15T12:10:07.178Z,94.65
2023-04-15T12:11:07.189Z,94.90
2023-04-15T12:12:07.162Z,95.51
2023-04-15T12:13:07.150Z,95.72
2023-04-15T12:14:07.135Z,96.59
2023-04-15T12:15:07.137Z,95.87
2023-04-15T12:16:07.157Z,95.81
2023-04-15T12:17:07.085Z,95.77
2023-04-15T12:18:07.111Z,94.38
2023-04-15T12:19:07.068Z,95.31
2023-04-15T12:20:07.056Z,94.79
2023-04-15T12:21:07.071Z,95.00
2023-04-15T12:22:07.019Z,95.65
2023-04-15T12:23:07.013Z,96.06
2023-04-15T12:24:07.056Z,96.47
2023-04-15T12:25:07.001Z,95.65
2023-04-15T12:26:06.974Z,95.76
2023-04-15T12:27:06.968Z,96.58
2023-04-15T12:28:06.945Z,96.43
2023-04-15T12:29:06.937Z,95.51
2023-04-15T12:30:06.938Z,95.72
2023-04-15T12:31:06.938Z,95.81
2023-04-15T12:32:06.923Z,95.61
2023-04-15T12:33:06.899Z,95.06
2023-04-15T12:34:07.008Z,95.41
2023-04-15T12:35:06.869Z,96.02
2023-04-15T12:36:06.842Z,95.92
2023-04-15T12:37:06.817Z,96.22
2023-04-15T12:38:06.807Z,96.12
2023-04-15T12:39:06.817Z,95.92
2023-04-15T12:40:06.816Z,96.53
2023-04-15T12:41:06.768Z,97.34
2023-04-15T12:42:06.768Z,97.29
2023-04-15T12:43:06.744Z,97.60
2023-04-15T12:44:06.881Z,97.90
2023-04-15T12:45:06.744Z,98.61
2023-04-15T12:46:06.721Z,98.21
2023-04-15T12:47:06.701Z,98.66
2023-04-15T12:48:06.681Z,98.56
2023-04-15T12:49:06.659Z,98.93
2023-04-15T12:50:06.652Z,98.82
2023-04-15T12:51:06.638Z,99.23
2023-04-15T12:52:06.653Z,98.93